createdAt,value
2019-05-22T00:00:38.823Z,96.79
2019-05-22T00:01:38.853Z,96.59
2019-05-22T00:02:38.834Z,96.38
2019-05-22T00:03:38.950Z,96.33
2019-05-22T00:04:38.782Z,95.87
2019-05-22T00:05:38.842Z,95.92
2019-05-22T00:06:38.753Z,95.00
2019-05-22T00:07:38.944Z,95.61
2019-05-22T00:08:38.775Z,95.72
2019-05-22T00:09:38.874Z,95.31
2019-05-22T00:10:38.710Z,95.31
2019-05-22T00:11:39.832Z,95.10
2019-05-22T00:12:46.713Z,95.10
2019-05-22T00:13:39.715Z,95.20
2019-05-22T00:14:38.836Z,95.00
2019-05-22T00:15:38.892Z,95.41
2019-05-22T00:16:38.828Z,95.72
2019-05-22T00:17:38.640Z,94.59
2019-05-22T00:18:39.782Z,95.15
2019-05-22T00:19:38.646Z,94.90
2019-05-22T00:20:38.772Z,95.51
2019-05-22T00:21:38.612Z,95.35
2019-05-22T00:22:38.652Z,95.56
2019-05-22T00:23:38.594Z,95.65
2019-05-22T00:24:38.743Z,95.35
2019-05-22T00:25:38.544Z,95.86
2019-05-22T00:26:38.682Z,95.04
2019-05-22T00:27:38.521Z,95.61
2019-05-22T00:28:38.517Z,95.65
2019-05-22T00:29:38.562Z,95.65
2019-05-22T00:30:38.605Z,96.37
2019-05-22T00:31:38.504Z,96.37
2019-05-22T00:32:38.621Z,96.37
2019-05-22T00:33:38.509Z,96.06
2019-05-22T00:34:38.501Z,96.37
2019-05-22T00:35:38.495Z,96.17
2019-05-22T00:36:38.422Z,95.65
2019-05-22T00:37:38.553Z,95.65
2019-05-22T00:38:38.404Z,95.76
2019-05-22T00:39:38.429Z,96.06
2019-05-22T00:40:38.395Z,95.96
2019-05-22T00:41:38.491Z,95.65
2019-05-22T00:42:38.378Z,96.06
2019-05-22T00:43:38.543Z,95.96
2019-05-22T00:44:38.336Z,95.96
2019-05-22T00:45:38.392Z,95.35
2019-05-22T00:46:38.405Z,96.37
2019-05-22T00:47:38.329Z,96.37
2019-05-22T00:48:38.475Z,96.47
2019-05-22T00:49:38.285Z,95.56
2019-05-22T00:50:38.311Z,96.06
2019-05-22T00:51:38.263Z,96.27
2019-05-22T00:52:38.412Z,96.27
2019-05-22T00:53:38.255Z,96.17
2019-05-22T00:54:38.383Z,95.96
2019-05-22T00:55:38.263Z,96.06
2019-05-22T00:56:38.211Z,96.78
2019-05-22T00:57:38.272Z,96.47
2019-05-22T00:58:38.187Z,96.78
2019-05-22T00:59:39.300Z,96.17
2019-05-22T01:00:38.219Z,96.47
2019-05-22T01:01:38.487Z,96.17
2019-05-22T01:02:38.150Z,96.37
2019-05-22T01:03:38.216Z,96.27
2019-05-22T01:04:38.155Z,96.27
2019-05-22T01:06:48.072Z,96.58
2019-05-22T01:07:48.015Z,96.58
2019-05-22T01:08:48.175Z,96.58
2019-05-22T01:09:47.996Z,96.78
2019-05-22T01:10:48.088Z,96.78
2019-05-22T01:11:48.035Z,96.47
2019-05-22T01:12:47.971Z,96.58
2019-05-22T01:13:47.952Z,96.47
2019-05-22T01:14:48.174Z,96.58
2019-05-22T01:15:47.933Z,96.78
2019-05-22T01:16:48.042Z,96.62
2019-05-22T01:17:47.922Z,96.58
2019-05-22T01:18:47.909Z,96.68
2019-05-22T01:19:48.137Z,96.58
2019-05-22T01:20:47.887Z,96.37
2019-05-22T01:21:47.959Z,96.51
2019-05-22T01:22:47.916Z,96.58
2019-05-22T01:23:47.857Z,96.51
2019-05-22T01:24:47.879Z,96.62
2019-05-22T01:25:47.983Z,96.58
2019-05-22T01:26:47.870Z,96.11
2019-05-22T01:27:47.897Z,96.51
2019-05-22T01:28:47.843Z,96.42
2019-05-22T01:29:47.922Z,96.72
2019-05-22T01:30:47.783Z,96.92
2019-05-22T01:31:47.889Z,96.98
2019-05-22T01:32:47.766Z,96.92
2019-05-22T01:33:47.856Z,97.03
2019-05-22T01:34:47.838Z,96.92
2019-05-22T01:35:47.715Z,96.92
2019-05-22T01:36:47.910Z,96.83
2019-05-22T01:37:47.710Z,96.92
2019-05-22T01:38:47.777Z,96.92
2019-05-22T01:39:47.668Z,97.03
2019-05-22T01:40:47.793Z,97.95
2019-05-22T01:41:47.758Z,97.44
2019-05-22T01:42:47.792Z,97.95
2019-05-22T01:43:47.634Z,97.95
2019-05-22T01:45:00.248Z,97.85
2019-05-22T01:45:48.661Z,97.95
2019-05-22T01:46:48.557Z,97.44
2019-05-22T01:47:47.599Z,97.85
2019-05-22T01:48:47.734Z,97.74
2019-05-22T01:49:47.577Z,97.44
2019-05-22T01:50:47.558Z,97.74
2019-05-22T01:51:47.606Z,97.64
2019-05-22T01:52:48.740Z,97.64
2019-05-22T01:53:47.552Z,97.85
2019-05-22T01:54:54.219Z,97.64
2019-05-22T01:55:48.506Z,98.25
2019-05-22T01:56:47.536Z,97.64
2019-05-22T01:57:47.570Z,97.74
2019-05-22T01:58:49.552Z,97.85
2019-05-22T01:59:47.489Z,97.85
2019-05-22T02:00:47.621Z,98.05
2019-05-22T02:01:47.460Z,98.05
2019-05-22T02:02:47.437Z,98.05
2019-05-22T02:03:47.527Z,97.54
2019-05-22T02:04:47.415Z,97.85
2019-05-22T02:05:47.607Z,97.54
2019-05-22T02:06:47.420Z,98.05
2019-05-22T02:07:47.385Z,98.05
2019-05-22T02:08:47.462Z,98.05
2019-05-22T02:09:47.367Z,97.64
2019-05-22T02:10:47.523Z,97.64
2019-05-22T02:11:47.335Z,97.64
2019-05-22T02:12:47.408Z,98.10
2019-05-22T02:13:47.327Z,98.15
2019-05-22T02:14:47.391Z,98.30
2019-05-22T02:15:47.293Z,98.15
2019-05-22T02:16:56.685Z,98.15
2019-05-22T02:17:48.279Z,98.25
2019-05-22T02:18:47.322Z,97.44
2019-05-22T02:19:47.373Z,97.74
2019-05-22T02:20:47.267Z,97.64
2019-05-22T02:21:47.394Z,97.95
2019-05-22T02:22:47.224Z,98.40
2019-05-22T02:23:47.227Z,98.36
2019-05-22T02:24:47.273Z,97.95
2019-05-22T02:25:47.260Z,97.85
2019-05-22T02:26:47.190Z,98.10
2019-05-22T02:27:47.285Z,98.10
2019-05-22T02:28:47.207Z,98.20
2019-05-22T02:29:47.156Z,98.30
2019-05-22T02:30:47.276Z,98.10
2019-05-22T02:31:47.183Z,98.30
2019-05-22T02:32:47.207Z,97.89
2019-05-22T02:33:47.113Z,98.50
2019-05-22T02:34:47.110Z,98.10
2019-05-22T02:35:47.160Z,98.20
2019-05-22T02:36:49.182Z,98.50
2019-05-22T02:37:47.128Z,98.50
2019-05-22T02:38:47.157Z,97.79
2019-05-22T02:39:47.059Z,98.20
2019-05-22T02:40:47.131Z,98.20
2019-05-22T02:41:53.631Z,97.99
2019-05-22T02:42:47.028Z,97.79
2019-05-22T02:43:49.135Z,98.10
2019-05-22T02:44:46.999Z,97.89
2019-05-22T02:45:47.033Z,97.79
2019-05-22T02:46:47.006Z,97.89
2019-05-22T02:47:47.142Z,97.79
2019-05-22T02:48:46.953Z,98.10
2019-05-22T02:49:47.087Z,98.10
2019-05-22T02:50:46.926Z,98.10
2019-05-22T02:51:47.024Z,97.49
2019-05-22T02:52:46.953Z,98.30
2019-05-22T02:53:47.062Z,97.58
2019-05-22T02:54:46.889Z,97.89
2019-05-22T02:55:46.951Z,97.69
2019-05-22T02:56:47.034Z,97.17
2019-05-22T02:57:46.855Z,97.79
2019-05-22T02:58:46.983Z,97.58
2019-05-22T02:59:46.842Z,97.79
2019-05-22T03:00:46.954Z,97.79
2019-05-22T03:01:46.857Z,97.58
2019-05-22T03:02:46.891Z,97.89
2019-05-22T03:03:46.804Z,97.49
2019-05-22T03:04:46.859Z,97.69
2019-05-22T03:05:46.764Z,97.79
2019-05-22T03:06:46.823Z,97.58
2019-05-22T03:07:46.849Z,97.69
2019-05-22T03:08:46.779Z,97.79
2019-05-22T03:09:46.865Z,97.69
2019-05-22T03:10:46.761Z,97.69
2019-05-22T03:11:46.760Z,97.38
2019-05-22T03:12:46.736Z,97.58
2019-05-22T03:13:46.779Z,98.10
2019-05-22T03:14:46.668Z,97.28
2019-05-22T03:15:46.792Z,98.20
2019-05-22T03:16:46.653Z,97.38
2019-05-22T03:17:46.751Z,97.89
2019-05-22T03:18:47.630Z,97.58
2019-05-22T03:19:46.629Z,97.99
2019-05-22T03:20:46.711Z,97.99
2019-05-22T03:21:46.596Z,98.30
2019-05-22T03:22:46.684Z,97.49
2019-05-22T03:23:46.619Z,97.79
2019-05-22T03:24:46.639Z,97.79
2019-05-22T03:25:46.580Z,98.30
2019-05-22T03:26:46.659Z,98.10
2019-05-22T03:27:46.572Z,97.99
2019-05-22T03:28:46.663Z,97.79
2019-05-22T03:29:46.531Z,97.49
2019-05-22T03:30:46.599Z,97.08
2019-05-22T03:31:46.509Z,98.10
2019-05-22T03:32:47.568Z,98.10
2019-05-22T03:33:46.483Z,97.79
2019-05-22T03:34:46.525Z,97.99
2019-05-22T03:35:46.625Z,97.49
2019-05-22T03:36:46.510Z,98.40
2019-05-22T03:37:46.474Z,97.94
2019-05-22T03:38:46.521Z,98.40
2019-05-22T03:39:46.400Z,97.99
2019-05-22T03:40:46.411Z,97.99
2019-05-22T03:41:46.500Z,97.58
2019-05-22T03:42:46.369Z,98.10
2019-05-22T03:43:46.448Z,97.79
2019-05-22T03:44:47.065Z,97.94
2019-05-22T03:45:46.384Z,97.79
2019-05-22T03:46:46.323Z,98.24
2019-05-22T03:47:46.400Z,97.79
2019-05-22T03:48:46.304Z,97.94
2019-05-22T03:49:46.477Z,97.79
2019-05-22T03:50:46.291Z,97.79
2019-05-22T03:51:46.326Z,97.79
2019-05-22T03:52:46.312Z,98.45
2019-05-22T03:53:46.273Z,97.38
2019-05-22T03:54:46.318Z,98.04
2019-05-22T03:55:46.268Z,97.83
2019-05-22T03:56:46.260Z,97.83
2019-05-22T03:57:46.222Z,97.89
2019-05-22T03:58:46.265Z,97.79
2019-05-22T03:59:46.185Z,98.24
2019-05-22T04:00:46.312Z,97.74
2019-05-22T04:01:46.252Z,98.04
2019-05-22T04:02:46.154Z,97.94
2019-05-22T04:03:46.178Z,97.94
2019-05-22T04:04:46.143Z,98.04
2019-05-22T04:05:46.254Z,97.94
2019-05-22T04:06:46.116Z,98.04
2019-05-22T04:07:46.100Z,98.04
2019-05-22T04:08:46.171Z,98.04
2019-05-22T04:10:46.068Z,98.24
2019-05-22T04:11:52.681Z,98.04
2019-05-22T04:12:46.055Z,98.45
2019-05-22T04:13:46.081Z,98.04
2019-05-22T04:14:47.087Z,97.94
2019-05-22T04:15:46.063Z,97.94
2019-05-22T04:16:46.058Z,98.55
2019-05-22T04:17:45.993Z,97.88
2019-05-22T04:18:45.982Z,98.04
2019-05-22T04:19:50.079Z,98.60
2019-05-22T04:20:47.048Z,99.16
2019-05-22T04:21:45.953Z,98.70
2019-05-22T04:22:45.994Z,98.70
2019-05-22T04:23:46.000Z,99.41
2019-05-22T04:24:46.013Z,98.49
2019-05-22T04:25:45.957Z,99.93
2019-05-22T04:26:46.046Z,99.31
2019-05-22T04:27:45.907Z,99.11
2019-05-22T04:28:46.015Z,99.72
2019-05-22T04:29:45.944Z,99.82
2019-05-22T04:30:45.876Z,99.72
2019-05-22T04:31:45.972Z,99.72
2019-05-22T04:32:45.839Z,99.62
2019-05-22T04:33:45.923Z,99.99
2019-05-22T04:34:45.820Z,99.99
2019-05-22T04:35:45.890Z,99.93
2019-05-22T04:36:45.789Z,99.99
2019-05-22T04:37:46.004Z,99.99
2019-05-22T04:38:45.797Z,99.99
2019-05-22T04:39:45.807Z,99.99
2019-05-22T04:40:45.810Z,99.99
2019-05-22T04:41:45.758Z,99.99
2019-05-22T04:42:45.910Z,99.99
2019-05-22T04:43:45.722Z,99.99
2019-05-22T04:44:45.754Z,99.99
2019-05-22T04:45:45.712Z,99.99
2019-05-22T04:46:45.806Z,99.99
2019-05-22T04:47:45.698Z,99.99
2019-05-22T04:48:46.659Z,99.99
2019-05-22T04:49:45.650Z,99.99
2019-05-22T04:50:46.877Z,99.99
2019-05-22T04:51:45.664Z,99.99
2019-05-22T04:52:45.790Z,99.99
2019-05-22T04:53:45.676Z,99.99
2019-05-22T04:54:45.818Z,99.99
2019-05-22T04:55:45.593Z,99.99
2019-05-22T04:56:45.589Z,99.99
2019-05-22T04:57:45.581Z,99.99
2019-05-22T04:58:45.874Z,99.99
2019-05-22T04:59:45.549Z,99.99
2019-05-22T05:00:45.737Z,99.99
2019-05-22T05:01:45.549Z,99.99
2019-05-22T05:02:45.520Z,99.99
2019-05-22T05:03:45.550Z,99.99
2019-05-22T05:04:45.727Z,99.99
2019-05-22T05:05:45.489Z,99.99
2019-05-22T05:06:46.494Z,99.99
2019-05-22T05:07:45.684Z,99.99
2019-05-22T05:08:45.534Z,99.99
2019-05-22T05:09:45.594Z,99.99
2019-05-22T05:10:45.433Z,99.99
2019-05-22T05:11:45.627Z,99.99
2019-05-22T05:12:45.457Z,99.99
2019-05-22T05:13:45.410Z,99.99
2019-05-22T05:14:45.532Z,99.99
2019-05-22T05:15:45.414Z,99.99
2019-05-22T05:16:45.539Z,99.99
2019-05-22T05:17:45.417Z,99.99
2019-05-22T05:18:45.369Z,99.99
2019-05-22T05:19:45.337Z,99.99
2019-05-22T05:20:45.464Z,99.99
2019-05-22T05:21:45.356Z,99.99
2019-05-22T05:22:45.623Z,99.99
2019-05-22T05:23:45.294Z,99.99
2019-05-22T05:24:45.316Z,99.99
2019-05-22T05:25:45.282Z,99.99
2019-05-22T05:26:45.470Z,99.99
2019-05-22T05:27:45.252Z,99.99
2019-05-22T05:28:45.435Z,99.99
2019-05-22T05:29:45.420Z,99.99
2019-05-22T05:30:45.296Z,99.99
2019-05-22T05:31:45.414Z,99.99
2019-05-22T05:32:45.213Z,99.99
2019-05-22T05:33:45.345Z,99.99
2019-05-22T05:34:45.589Z,99.99
2019-05-22T05:35:45.190Z,99.99
2019-05-22T05:36:45.362Z,99.99
2019-05-22T05:37:45.218Z,99.99
2019-05-22T05:38:45.276Z,99.99
2019-05-22T05:39:45.147Z,99.99
2019-05-22T05:40:45.194Z,99.99
2019-05-22T05:41:45.107Z,99.99
2019-05-22T05:42:45.478Z,99.99
2019-05-22T05:43:45.097Z,99.99
2019-05-22T05:44:45.192Z,99.99
2019-05-22T05:45:45.067Z,99.99
2019-05-22T05:46:45.068Z,99.99
2019-05-22T05:47:45.233Z,99.99
2019-05-22T05:48:45.037Z,99.99
2019-05-22T05:49:45.221Z,99.99
2019-05-22T05:50:45.026Z,99.99
2019-05-22T05:51:45.043Z,99.99
2019-05-22T05:52:45.049Z,99.99
2019-05-22T05:53:45.175Z,99.99
2019-05-22T05:54:44.967Z,99.99
2019-05-22T05:55:45.157Z,99.99
2019-05-22T05:56:45.029Z,99.99
2019-05-22T05:57:44.947Z,99.96
2019-05-22T05:58:45.171Z,99.66
2019-05-22T05:59:44.930Z,99.66
2019-05-22T06:00:45.056Z,99.99
2019-05-22T06:01:44.901Z,99.96
2019-05-22T06:02:56.200Z,99.45
2019-05-22T06:03:45.995Z,99.25
2019-05-22T06:04:45.101Z,99.04
2019-05-22T06:05:44.901Z,98.94
2019-05-22T06:06:44.966Z,99.15
2019-05-22T06:07:44.900Z,99.04
2019-05-22T06:08:44.918Z,98.53
2019-05-22T06:09:44.974Z,99.15
2019-05-22T06:10:44.833Z,97.61
2019-05-22T06:11:44.997Z,98.12
2019-05-22T06:12:44.843Z,98.02
2019-05-22T06:13:44.900Z,98.63
2019-05-22T06:14:44.770Z,98.07
2019-05-22T06:15:47.629Z,98.12
2019-05-22T06:16:44.810Z,98.28
2019-05-22T06:17:44.941Z,98.12
2019-05-22T06:18:44.719Z,97.71
2019-05-22T06:19:44.730Z,97.61
2019-05-22T06:21:01.209Z,98.07
2019-05-22T06:21:45.733Z,98.12
2019-05-22T06:22:44.675Z,98.58
2019-05-22T06:23:45.782Z,98.07
2019-05-22T06:24:44.872Z,98.07
2019-05-22T06:25:44.694Z,98.18
2019-05-22T06:26:44.656Z,98.28
2019-05-22T06:27:44.822Z,98.49
2019-05-22T06:28:44.610Z,97.97
2019-05-22T06:29:44.782Z,97.87
2019-05-22T06:30:44.745Z,97.91
2019-05-22T06:31:44.578Z,98.53
2019-05-22T06:32:44.716Z,97.91
2019-05-22T06:33:44.578Z,98.12
2019-05-22T06:34:44.788Z,97.30
2019-05-22T06:35:44.545Z,98.22
2019-05-22T06:36:44.668Z,97.20
2019-05-22T06:37:44.555Z,97.81
2019-05-22T06:38:44.706Z,97.20
2019-05-22T06:39:44.499Z,98.12
2019-05-22T06:40:46.613Z,97.61
2019-05-22T06:41:44.520Z,97.30
2019-05-22T06:42:44.524Z,97.20
2019-05-22T06:43:44.537Z,96.58
2019-05-22T06:44:44.605Z,96.89
2019-05-22T06:45:44.435Z,96.74
2019-05-22T06:46:45.548Z,97.05
2019-05-22T06:47:44.410Z,96.58
2019-05-22T06:48:44.441Z,96.17
2019-05-22T06:49:44.630Z,96.79
2019-05-22T06:50:44.373Z,96.64
2019-05-22T06:51:44.572Z,96.74
2019-05-22T06:52:44.355Z,96.74
2019-05-22T06:53:44.414Z,97.05
2019-05-22T06:54:44.337Z,97.15
2019-05-22T06:55:44.460Z,97.25
2019-05-22T06:56:44.406Z,97.66
2019-05-22T06:57:44.504Z,97.25
2019-05-22T06:58:44.297Z,97.66
2019-05-22T06:59:44.390Z,97.66
2019-05-22T07:00:44.324Z,97.72
2019-05-22T07:01:44.402Z,97.77
2019-05-22T07:02:44.281Z,97.66
2019-05-22T07:03:44.481Z,97.11
2019-05-22T07:04:44.232Z,96.49
2019-05-22T07:05:44.219Z,96.33
2019-05-22T07:06:44.344Z,96.74
2019-05-22T07:07:44.193Z,96.54
2019-05-22T07:08:44.447Z,96.59
2019-05-22T07:09:44.224Z,96.49
2019-05-22T07:10:44.224Z,96.59
2019-05-22T07:11:44.196Z,96.19
2019-05-22T07:12:44.275Z,96.39
2019-05-22T07:13:44.137Z,96.59
2019-05-22T07:14:44.296Z,96.70
2019-05-22T07:15:44.275Z,96.80
2019-05-22T07:16:44.100Z,96.08
2019-05-22T07:17:45.226Z,96.08
2019-05-22T07:18:44.085Z,96.25
2019-05-22T07:19:44.215Z,95.43
2019-05-22T07:20:44.112Z,95.53
2019-05-22T07:21:44.230Z,94.60
2019-05-22T07:22:44.224Z,93.59
2019-05-22T07:23:44.200Z,93.89
2019-05-22T07:24:44.030Z,93.89
2019-05-22T07:25:44.212Z,93.28
2019-05-22T07:26:43.987Z,92.77
2019-05-22T07:27:44.039Z,92.87
2019-05-22T07:28:43.974Z,92.97
2019-05-22T07:29:44.098Z,92.97
2019-05-22T07:30:43.947Z,92.11
2019-05-22T07:31:45.143Z,91.95
2019-05-22T07:32:43.952Z,91.80
2019-05-22T07:33:43.945Z,91.91
2019-05-22T07:34:44.027Z,91.70
2019-05-22T07:36:04.582Z,91.39
2019-05-22T07:36:44.895Z,91.54
2019-05-22T07:37:44.053Z,92.36
2019-05-22T07:38:43.966Z,92.56
2019-05-22T07:39:43.981Z,92.66
2019-05-22T07:40:43.948Z,91.91
2019-05-22T07:41:43.964Z,92.01
2019-05-22T07:42:43.833Z,91.91
2019-05-22T07:43:44.036Z,91.39
2019-05-22T07:44:43.801Z,92.42
2019-05-22T07:45:43.952Z,91.80
2019-05-22T07:46:43.814Z,91.50
2019-05-22T07:47:44.031Z,91.91
2019-05-22T07:48:43.955Z,91.91
2019-05-22T07:49:43.981Z,91.60
2019-05-22T07:50:47.931Z,91.50
2019-05-22T07:51:54.047Z,92.01
2019-05-22T07:52:44.730Z,91.91
2019-05-22T07:53:43.898Z,91.35
2019-05-22T07:54:43.705Z,91.39
2019-05-22T07:55:43.753Z,91.80
2019-05-22T07:56:43.667Z,91.39
2019-05-22T07:57:43.761Z,91.91
2019-05-22T07:58:44.674Z,91.05
2019-05-22T07:59:43.854Z,90.88
2019-05-22T08:00:43.635Z,90.68
2019-05-22T08:01:43.636Z,91.29
2019-05-22T08:02:43.803Z,91.05
2019-05-22T08:03:43.661Z,89.82
2019-05-22T08:04:43.697Z,89.76
2019-05-22T08:05:43.584Z,89.20
2019-05-22T08:06:43.723Z,89.51
2019-05-22T08:07:43.582Z,88.79
2019-05-22T08:08:45.758Z,89.31
2019-05-22T08:09:43.554Z,88.70
2019-05-22T08:10:50.190Z,89.11
2019-05-22T08:11:43.550Z,88.70
2019-05-22T08:12:43.509Z,88.49
2019-05-22T08:13:44.033Z,88.08
2019-05-22T08:14:43.677Z,88.79
2019-05-22T08:15:47.698Z,88.18
2019-05-22T08:16:43.584Z,87.73
2019-05-22T08:17:43.511Z,87.84
2019-05-22T08:18:43.458Z,87.53
2019-05-22T08:19:43.655Z,86.91
2019-05-22T08:20:43.417Z,86.82
2019-05-22T08:21:43.579Z,87.02
2019-05-22T08:22:43.398Z,87.02
2019-05-22T08:23:43.417Z,87.49
2019-05-22T08:24:43.387Z,87.02
2019-05-22T08:25:43.548Z,87.43
2019-05-22T08:26:53.732Z,87.02
2019-05-22T08:27:44.349Z,86.91
2019-05-22T08:28:43.837Z,86.00
2019-05-22T08:29:43.338Z,87.02
2019-05-22T08:30:43.527Z,86.51
2019-05-22T08:31:43.336Z,85.69
2019-05-22T08:32:43.496Z,85.73
2019-05-22T08:33:43.339Z,86.65
2019-05-22T08:34:43.288Z,85.12
2019-05-22T08:35:43.268Z,85.73
2019-05-22T08:36:43.394Z,86.14
2019-05-22T08:37:43.295Z,85.32
2019-05-22T08:38:43.409Z,84.50
2019-05-22T08:39:43.250Z,84.30
2019-05-22T08:40:43.240Z,84.30
2019-05-22T08:41:43.217Z,84.30
2019-05-22T08:42:43.345Z,83.59
2019-05-22T08:44:11.251Z,83.54
2019-05-22T08:44:44.174Z,83.44
2019-05-22T08:45:43.244Z,83.95
2019-05-22T08:46:44.287Z,83.65
2019-05-22T08:47:43.205Z,83.00
2019-05-22T08:48:47.786Z,82.49
2019-05-22T08:49:44.144Z,82.08
2019-05-22T08:50:43.267Z,81.77
2019-05-22T08:51:43.196Z,81.67
2019-05-22T08:52:43.114Z,80.44
2019-05-22T08:53:48.418Z,80.75
2019-05-22T08:54:44.126Z,80.65
2019-05-22T08:55:43.222Z,81.16
2019-05-22T08:56:43.050Z,80.85
2019-05-22T08:57:43.029Z,80.96
2019-05-22T08:58:44.169Z,81.40
2019-05-22T08:59:43.024Z,81.05
2019-05-22T09:00:44.147Z,81.57
2019-05-22T09:01:42.998Z,82.08
2019-05-22T09:02:42.998Z,82.49
2019-05-22T09:03:42.951Z,82.55
2019-05-22T09:04:43.120Z,81.73
2019-05-22T09:05:42.991Z,79.66
2019-05-22T09:06:43.997Z,79.25
2019-05-22T09:07:42.920Z,78.43
2019-05-22T09:08:42.908Z,78.94
2019-05-22T09:09:43.065Z,80.07
2019-05-22T09:10:42.947Z,80.88
2019-05-22T09:11:43.940Z,80.07
2019-05-22T09:12:42.904Z,78.43
2019-05-22T09:13:42.948Z,78.64
2019-05-22T09:14:42.860Z,78.64
2019-05-22T09:15:42.945Z,79.14
2019-05-22T09:16:42.828Z,79.75
2019-05-22T09:17:42.974Z,79.25
2019-05-22T09:18:42.833Z,79.75
2019-05-22T09:19:42.824Z,78.53
2019-05-22T09:20:49.300Z,79.55
2019-05-22T09:21:43.906Z,79.62
2019-05-22T09:22:42.756Z,79.52
2019-05-22T09:23:42.959Z,79.93
2019-05-22T09:24:42.845Z,78.80
2019-05-22T09:25:42.717Z,79.52
2019-05-22T09:26:42.934Z,78.91
2019-05-22T09:27:42.767Z,79.14
2019-05-22T09:28:42.843Z,79.86
2019-05-22T09:29:42.679Z,79.55
2019-05-22T09:30:42.756Z,79.55
2019-05-22T09:31:42.723Z,79.86
2019-05-22T09:32:42.749Z,80.88
2019-05-22T09:33:42.644Z,80.37
2019-05-22T09:34:42.805Z,80.47
2019-05-22T09:35:42.735Z,81.29
2019-05-22T09:36:42.635Z,80.47
2019-05-22T09:37:42.631Z,80.64
2019-05-22T09:38:43.777Z,79.62
2019-05-22T09:39:42.590Z,80.13
2019-05-22T09:40:42.721Z,79.82
2019-05-22T09:41:42.559Z,80.70
2019-05-22T09:42:45.746Z,80.54
2019-05-22T09:43:42.552Z,80.70
2019-05-22T09:44:50.330Z,79.79
2019-05-22T09:45:42.557Z,79.52
2019-05-22T09:46:43.622Z,78.87
2019-05-22T09:47:42.517Z,77.64
2019-05-22T09:48:42.468Z,77.75
2019-05-22T09:49:42.455Z,77.95
2019-05-22T09:50:42.556Z,76.53
2019-05-22T09:51:42.487Z,77.64
2019-05-22T09:52:56.361Z,76.73
2019-05-22T09:53:43.523Z,76.08
2019-05-22T09:54:42.433Z,76.59
2019-05-22T09:55:47.497Z,76.69
2019-05-22T09:56:42.398Z,76.35
2019-05-22T09:57:42.534Z,74.21
2019-05-22T09:58:42.533Z,74.32
2019-05-22T09:59:42.440Z,74.62
2019-05-22T10:00:42.454Z,75.74
2019-05-22T10:01:42.368Z,73.50
2019-05-22T10:02:42.580Z,76.45
2019-05-22T10:03:42.532Z,74.52
2019-05-22T10:04:42.464Z,72.62
2019-05-22T10:05:42.373Z,74.35
2019-05-22T10:06:42.575Z,73.64
2019-05-22T10:07:57.735Z,73.91
2019-05-22T10:08:43.266Z,75.27
2019-05-22T10:09:42.299Z,74.21
2019-05-22T10:10:42.258Z,73.30
2019-05-22T10:11:42.456Z,73.19
2019-05-22T10:12:42.299Z,74.21
2019-05-22T10:13:43.290Z,73.43
2019-05-22T10:14:42.214Z,74.15
2019-05-22T10:15:42.240Z,74.15
2019-05-22T10:16:42.336Z,74.45
2019-05-22T10:17:42.290Z,74.55
2019-05-22T10:18:42.169Z,74.96
2019-05-22T10:19:42.281Z,75.78
2019-05-22T10:20:42.134Z,75.78
2019-05-22T10:21:42.335Z,75.27
2019-05-22T10:22:42.103Z,75.23
2019-05-22T10:23:43.216Z,73.40
2019-05-22T10:24:42.124Z,73.97
2019-05-22T10:25:42.230Z,73.87
2019-05-22T10:26:44.212Z,73.33
2019-05-22T10:27:42.082Z,73.19
2019-05-22T10:28:43.090Z,73.50
2019-05-22T10:29:42.088Z,72.78
2019-05-22T10:30:43.088Z,75.12
2019-05-22T10:31:42.061Z,73.80
2019-05-22T10:32:42.104Z,74.18
2019-05-22T10:33:42.010Z,72.38
2019-05-22T10:34:42.083Z,73.02
2019-05-22T10:35:42.071Z,74.96
2019-05-22T10:36:43.233Z,74.62
2019-05-22T10:37:41.966Z,72.89
2019-05-22T10:38:42.192Z,72.08
2019-05-22T10:39:41.941Z,72.99
2019-05-22T10:40:42.989Z,71.33
2019-05-22T10:41:41.933Z,70.72
2019-05-22T10:42:44.638Z,71.30
2019-05-22T10:43:41.977Z,70.18
2019-05-22T10:44:41.968Z,70.38
2019-05-22T10:45:41.880Z,69.17
2019-05-22T10:46:41.893Z,70.76
2019-05-22T10:47:41.909Z,70.83
2019-05-22T10:48:41.893Z,68.83
2019-05-22T10:49:41.891Z,69.95
2019-05-22T10:50:41.841Z,69.10
2019-05-22T10:51:41.954Z,68.70
2019-05-22T10:52:41.864Z,66.97
2019-05-22T10:53:41.780Z,68.52
2019-05-22T10:54:41.794Z,69.74
2019-05-22T10:55:41.862Z,70.45
2019-05-22T10:56:41.749Z,71.03
2019-05-22T10:57:42.803Z,71.36
2019-05-22T10:58:41.750Z,70.38
2019-05-22T10:59:41.746Z,69.34
2019-05-22T11:00:41.787Z,70.76
2019-05-22T11:01:41.711Z,69.74
2019-05-22T11:02:41.854Z,68.79
2019-05-22T11:03:41.698Z,67.17
2019-05-22T11:04:41.675Z,68.66
2019-05-22T11:05:42.151Z,67.17
2019-05-22T11:06:41.732Z,68.70
2019-05-22T11:07:41.664Z,68.29
2019-05-22T11:08:41.720Z,68.66
2019-05-22T11:09:41.664Z,68.52
2019-05-22T11:10:45.050Z,68.02
2019-05-22T11:11:41.705Z,65.59
2019-05-22T11:12:41.609Z,64.32
2019-05-22T11:13:41.664Z,62.48
2019-05-22T11:14:41.555Z,59.97
2019-05-22T11:15:41.542Z,58.56
2019-05-22T11:16:41.602Z,60.31
2019-05-22T11:17:41.602Z,58.65
2019-05-22T11:18:41.537Z,61.23
2019-05-22T11:19:41.671Z,60.10
2019-05-22T11:20:41.522Z,62.29
2019-05-22T11:21:41.554Z,64.31
2019-05-22T11:22:41.565Z,65.22
2019-05-22T11:23:51.452Z,65.12
2019-05-22T11:24:42.469Z,65.90
2019-05-22T11:25:41.654Z,62.95
2019-05-22T11:26:41.458Z,59.66
2019-05-22T11:27:41.437Z,62.38
2019-05-22T11:28:41.468Z,58.65
2019-05-22T11:29:41.403Z,61.33
2019-05-22T11:30:41.620Z,60.39
2019-05-22T11:31:41.383Z,59.45
2019-05-22T11:32:41.409Z,59.71
2019-05-22T11:33:41.368Z,57.14
2019-05-22T11:34:41.426Z,56.43
2019-05-22T11:35:41.403Z,58.32
2019-05-22T11:36:41.533Z,57.01
2019-05-22T11:37:41.317Z,57.01
2019-05-22T11:38:41.350Z,58.76
2019-05-22T11:39:44.913Z,55.16
2019-05-22T11:40:41.378Z,53.22
2019-05-22T11:41:41.291Z,53.05
2019-05-22T11:42:41.452Z,54.96
2019-05-22T11:43:41.270Z,56.50
2019-05-22T11:44:41.285Z,56.65
2019-05-22T11:45:44.972Z,60.35
2019-05-22T11:46:41.309Z,58.30
2019-05-22T11:47:41.271Z,59.31
2019-05-22T11:48:41.229Z,58.17
2019-05-22T11:49:41.332Z,59.22
2019-05-22T11:50:41.258Z,56.72
2019-05-22T11:51:41.345Z,54.93
2019-05-22T11:52:41.153Z,53.90
2019-05-22T11:53:41.301Z,53.45
2019-05-22T11:54:41.173Z,56.29
2019-05-22T11:55:45.613Z,55.29
2019-05-22T11:56:42.096Z,54.25
2019-05-22T11:57:41.157Z,52.51
2019-05-22T11:58:41.149Z,53.32
2019-05-22T11:59:41.065Z,53.83
2019-05-22T12:00:41.211Z,55.41
2019-05-22T12:01:41.180Z,50.35
2019-05-22T12:02:41.123Z,49.35
2019-05-22T12:03:41.093Z,49.73
2019-05-22T12:04:47.885Z,47.97
2019-05-22T12:05:42.014Z,48.90
2019-05-22T12:06:41.298Z,50.76
2019-05-22T12:07:41.018Z,52.67
2019-05-22T12:08:41.046Z,54.05
2019-05-22T12:09:40.991Z,56.71
2019-05-22T12:10:41.029Z,50.76
2019-05-22T12:11:43.279Z,53.90
2019-05-22T12:12:40.958Z,53.22
2019-05-22T12:13:41.069Z,52.14
2019-05-22T12:14:40.942Z,54.41
2019-05-22T12:15:40.989Z,54.36
2019-05-22T12:16:40.898Z,56.68
2019-05-22T12:17:40.994Z,55.49
2019-05-22T12:18:40.912Z,57.03
2019-05-22T12:19:40.943Z,56.85
2019-05-22T12:20:40.880Z,56.56
2019-05-22T12:21:40.841Z,55.49
2019-05-22T12:22:40.937Z,53.50
2019-05-22T12:23:40.842Z,55.64
2019-05-22T12:24:41.010Z,56.40
2019-05-22T12:25:40.820Z,54.75
2019-05-22T12:26:40.902Z,50.81
2019-05-22T12:27:40.802Z,48.26
2019-05-22T12:28:40.894Z,47.11
2019-05-22T12:29:40.803Z,46.76
2019-05-22T12:30:40.786Z,46.42
2019-05-22T12:31:40.769Z,47.90
2019-05-22T12:32:40.829Z,50.03
2019-05-22T12:33:40.794Z,50.73
2019-05-22T12:34:40.798Z,47.77
2019-05-22T12:35:41.759Z,48.63
2019-05-22T12:36:40.747Z,46.36
2019-05-22T12:37:40.719Z,46.38
2019-05-22T12:38:40.711Z,46.91
2019-05-22T12:39:40.760Z,46.95
2019-05-22T12:40:40.710Z,46.89
2019-05-22T12:41:40.792Z,48.93
2019-05-22T12:42:40.623Z,48.80
2019-05-22T12:43:44.379Z,48.90
2019-05-22T12:44:40.663Z,47.47
2019-05-22T12:45:41.662Z,48.81
2019-05-22T12:46:40.615Z,47.31
2019-05-22T12:47:41.588Z,45.78
2019-05-22T12:48:40.657Z,44.68
2019-05-22T12:49:40.554Z,47.15
2019-05-22T12:50:40.601Z,47.05
2019-05-22T12:51:40.554Z,48.83
2019-05-22T12:52:40.615Z,46.95
2019-05-22T12:53:40.565Z,48.05
2019-05-22T12:54:47.007Z,46.81